createdAt,value
2023-03-26T00:00:09.651Z,7.4
2023-03-26T00:03:09.814Z,7.4
2023-03-26T00:06:10.087Z,7.5
2023-03-26T00:09:09.558Z,7.5
2023-03-26T00:12:09.598Z,7.6
2023-03-26T00:15:09.597Z,7.6
2023-03-26T00:18:09.834Z,7.6
2023-03-26T00:21:09.506Z,7.6
2023-03-26T00:24:09.516Z,7.6
2023-03-26T00:27:09.717Z,7.6
2023-03-26T00:30:09.789Z,7.7
2023-03-26T00:33:09.904Z,7.7
2023-03-26T00:36:13.549Z,7.7
2023-03-26T00:39:09.524Z,7.7
2023-03-26T00:42:09.534Z,7.7
2023-03-26T00:45:09.803Z,7.6
2023-03-26T00:48:11.801Z,7.5
2023-03-26T00:51:09.459Z,7.4
2023-03-26T00:54:09.519Z,7.3
2023-03-26T00:57:09.794Z,7.2
2023-03-26T01:00:09.521Z,7.2
2023-03-26T01:03:11.123Z,7.1
2023-03-26T01:06:09.572Z,7.2
2023-03-26T01:09:09.491Z,7.1
2023-03-26T01:12:09.889Z,7.1
2023-03-26T01:15:09.671Z,7.2
2023-03-26T01:18:09.686Z,7.1
2023-03-26T01:21:09.959Z,7.1
2023-03-26T01:24:11.604Z,7.1
2023-03-26T01:27:09.605Z,7.2
2023-03-26T01:30:09.581Z,7.2
2023-03-26T01:33:10.444Z,7.2
2023-03-26T01:36:09.912Z,7.2
2023-03-26T01:39:09.795Z,7.2
2023-03-26T01:42:09.551Z,7.3
2023-03-26T01:45:09.653Z,7.4
2023-03-26T01:48:09.774Z,7.4
2023-03-26T01:51:09.562Z,7.5
2023-03-26T01:54:09.613Z,7.6
2023-03-26T01:57:10.384Z,7.6
2023-03-26T02:00:09.640Z,7.6
2023-03-26T02:03:10.128Z,7.5
2023-03-26T02:06:09.559Z,7.6
2023-03-26T02:09:09.973Z,7.6
2023-03-26T02:12:10.272Z,7.6
2023-03-26T02:15:09.672Z,7.6
2023-03-26T02:18:09.867Z,7.6
2023-03-26T02:21:11.458Z,7.6
2023-03-26T02:24:10.381Z,7.5
2023-03-26T02:27:11.634Z,7.5
2023-03-26T02:30:09.664Z,7.4
2023-03-26T02:33:09.865Z,7.4
2023-03-26T02:36:11.308Z,7.3
2023-03-26T02:39:09.629Z,7.3
2023-03-26T02:42:09.552Z,7.2
2023-03-26T02:45:09.577Z,7.2
2023-03-26T02:48:09.990Z,7.1
2023-03-26T02:51:09.540Z,7.1
2023-03-26T02:54:09.891Z,7.1
2023-03-26T02:57:10.013Z,7.1
2023-03-26T03:00:09.563Z,7
2023-03-26T03:03:10.013Z,6.9
2023-03-26T03:06:09.535Z,6.9
2023-03-26T03:09:09.546Z,6.9
2023-03-26T03:12:09.451Z,6.9
2023-03-26T03:15:09.657Z,6.9
2023-03-26T03:18:09.750Z,6.9
2023-03-26T03:21:09.609Z,7
2023-03-26T03:24:09.647Z,7.1
2023-03-26T03:27:09.467Z,7
2023-03-26T03:30:09.585Z,7
2023-03-26T03:33:09.715Z,7.1
2023-03-26T03:36:09.865Z,7.1
2023-03-26T03:39:09.595Z,7.1
2023-03-26T03:42:09.531Z,7.1
2023-03-26T03:45:09.506Z,7.1
2023-03-26T03:48:09.907Z,7.1
2023-03-26T03:51:09.473Z,7.1
2023-03-26T03:54:09.490Z,7.1
2023-03-26T03:57:09.863Z,7.1
2023-03-26T04:00:11.609Z,7.1
2023-03-26T04:03:09.985Z,7.1
2023-03-26T04:06:09.466Z,7.1
2023-03-26T04:09:09.525Z,7.1
2023-03-26T04:12:09.542Z,7.2
2023-03-26T04:15:09.604Z,7.1
2023-03-26T04:18:09.841Z,7.1
2023-03-26T04:21:09.642Z,7.1
2023-03-26T04:24:09.522Z,7.1
2023-03-26T04:27:09.483Z,7.1
2023-03-26T04:30:09.565Z,7.1
2023-03-26T04:33:09.813Z,7.2
2023-03-26T04:36:10.167Z,7.2
2023-03-26T04:39:09.683Z,7.2
2023-03-26T04:42:09.499Z,7.2
2023-03-26T04:45:09.529Z,7.2
2023-03-26T04:48:09.841Z,7.2
2023-03-26T04:51:09.486Z,7.1
2023-03-26T04:54:09.553Z,7.1
2023-03-26T04:57:09.924Z,7.1
2023-03-26T05:00:09.593Z,7.1
2023-03-26T05:03:09.928Z,7.1
2023-03-26T05:06:09.492Z,7.1
2023-03-26T05:09:09.604Z,7.1
2023-03-26T05:12:09.584Z,7.1
2023-03-26T05:15:09.649Z,7.1
2023-03-26T05:18:09.759Z,7.1
2023-03-26T05:21:09.605Z,7.2
2023-03-26T05:24:09.587Z,7.1
2023-03-26T05:27:09.531Z,7.1
2023-03-26T05:30:09.763Z,7.1
2023-03-26T05:33:10.232Z,7.1
2023-03-26T05:36:09.687Z,6.9
2023-03-26T05:39:09.549Z,6.8
2023-03-26T05:42:09.611Z,6.8
2023-03-26T05:45:09.630Z,6.9
2023-03-26T05:48:10.120Z,6.9
2023-03-26T05:51:09.575Z,7
2023-03-26T05:54:09.608Z,7.1
2023-03-26T05:57:09.850Z,7.2
2023-03-26T06:00:09.798Z,7.3
2023-03-26T06:03:10.604Z,7.4
2023-03-26T06:06:09.568Z,7.4
2023-03-26T06:09:11.781Z,7.4
2023-03-26T06:12:09.545Z,7.4
2023-03-26T06:15:09.557Z,7.5
2023-03-26T06:18:09.801Z,7.6
2023-03-26T06:21:09.560Z,7.6
2023-03-26T06:24:09.551Z,7.6
2023-03-26T06:27:09.604Z,7.6
2023-03-26T06:30:09.575Z,7.6
2023-03-26T06:33:09.731Z,7.6
2023-03-26T06:36:09.907Z,7.7
2023-03-26T06:39:16.391Z,7.7
2023-03-26T06:42:09.573Z,7.8
2023-03-26T06:45:09.636Z,7.8
2023-03-26T06:48:09.894Z,7.8
2023-03-26T06:51:09.645Z,7.7
2023-03-26T06:54:09.581Z,7.7
2023-03-26T06:57:09.984Z,7.7
2023-03-26T07:00:10.286Z,7.9
2023-03-26T07:03:09.732Z,7.9
2023-03-26T07:06:09.589Z,8
2023-03-26T07:09:09.594Z,8.1
2023-03-26T07:12:09.530Z,8.1
2023-03-26T07:15:09.627Z,8.3
2023-03-26T07:18:09.697Z,8.4
2023-03-26T07:21:09.529Z,8.6
2023-03-26T07:24:09.558Z,8.6
2023-03-26T07:27:09.538Z,8.6
2023-03-26T07:30:09.669Z,8.6
2023-03-26T07:33:09.783Z,8.8
2023-03-26T07:36:09.686Z,8.8
2023-03-26T07:39:09.502Z,8.9
2023-03-26T07:42:09.616Z,8.9
2023-03-26T07:45:09.598Z,8.9
2023-03-26T07:48:09.716Z,8.9
2023-03-26T07:51:09.551Z,8.8
2023-03-26T07:54:09.752Z,8.6
2023-03-26T07:57:11.356Z,8.5
2023-03-26T08:00:09.644Z,8.4
2023-03-26T08:03:10.435Z,8.4
2023-03-26T08:06:09.577Z,8.4
2023-03-26T08:09:09.867Z,8.4
2023-03-26T08:12:09.748Z,8.4
2023-03-26T08:15:09.622Z,8.6
2023-03-26T08:18:09.903Z,8.7
2023-03-26T08:21:09.579Z,8.8
2023-03-26T08:24:09.547Z,8.9
2023-03-26T08:27:09.516Z,9.1
2023-03-26T08:30:09.852Z,9.3
2023-03-26T08:33:09.780Z,9.4
2023-03-26T08:36:09.772Z,9.9
2023-03-26T08:39:09.544Z,10.3
2023-03-26T08:42:09.551Z,10.4
2023-03-26T08:45:09.583Z,10.3
2023-03-26T08:48:09.777Z,10.2
2023-03-26T08:51:09.556Z,9.9
2023-03-26T08:54:09.540Z,9.9
2023-03-26T08:57:09.844Z,9.8
2023-03-26T09:00:11.866Z,9.8
2023-03-26T09:03:09.837Z,9.8
2023-03-26T09:06:09.551Z,9.8
2023-03-26T09:09:09.621Z,9.9
2023-03-26T09:12:09.639Z,9.8
2023-03-26T09:15:09.641Z,9.8
2023-03-26T09:18:10.087Z,9.8
2023-03-26T09:21:09.551Z,9.8
2023-03-26T09:24:09.613Z,9.9
2023-03-26T09:27:09.562Z,10.1
2023-03-26T09:30:09.588Z,10.4
2023-03-26T09:33:09.846Z,10.9
2023-03-26T09:36:09.933Z,11.8
2023-03-26T09:39:09.548Z,13.1
2023-03-26T09:42:09.686Z,13.8
2023-03-26T09:45:09.624Z,13.1
2023-03-26T09:48:09.708Z,13
2023-03-26T09:51:09.664Z,12.6
2023-03-26T09:54:09.609Z,12.1
2023-03-26T09:57:09.856Z,11.6
2023-03-26T10:00:09.729Z,11.3
2023-03-26T10:03:09.806Z,10.9
2023-03-26T10:06:09.574Z,10.5
2023-03-26T10:09:09.612Z,10.2
2023-03-26T10:12:09.583Z,10
2023-03-26T10:15:09.680Z,10
2023-03-26T10:18:34.667Z,10.1
2023-03-26T10:21:09.518Z,10.2
2023-03-26T10:24:09.568Z,10.6
2023-03-26T10:27:19.739Z,10.6
2023-03-26T10:30:09.685Z,10.3
2023-03-26T10:33:09.922Z,10.1
2023-03-26T10:36:09.802Z,10.1
2023-03-26T10:39:09.629Z,9.9
2023-03-26T10:42:09.771Z,9.8
2023-03-26T10:45:11.836Z,9.6
2023-03-26T10:48:09.850Z,9.6
2023-03-26T10:51:09.557Z,9.7
2023-03-26T10:54:09.566Z,9.9
2023-03-26T10:57:09.939Z,10.4
2023-03-26T11:00:09.627Z,11
2023-03-26T11:03:09.816Z,11.3
2023-03-26T11:06:09.792Z,11.5
2023-03-26T11:09:09.539Z,11.5
2023-03-26T11:12:33.118Z,11.5
2023-03-26T11:15:09.643Z,11.6
2023-03-26T11:18:09.840Z,11.6
2023-03-26T11:21:29.604Z,11.8
2023-03-26T11:24:15.174Z,11.6
2023-03-26T11:27:30.676Z,11.6
2023-03-26T11:30:09.673Z,11.3
2023-03-26T11:33:09.690Z,11.1
2023-03-26T11:36:09.956Z,11.3
2023-03-26T11:39:09.693Z,11.4
2023-03-26T11:42:09.607Z,11.6
2023-03-26T11:45:09.637Z,11.6
2023-03-26T11:48:09.877Z,11.8
2023-03-26T11:51:09.617Z,11.9
2023-03-26T11:54:09.618Z,12
2023-03-26T11:57:16.100Z,11.8
2023-03-26T12:00:09.821Z,12
2023-03-26T12:03:09.796Z,12.1
2023-03-26T12:06:09.577Z,12.2
2023-03-26T12:09:09.562Z,12.4
2023-03-26T12:12:09.588Z,12.8
2023-03-26T12:15:09.564Z,13
2023-03-26T12:18:09.820Z,13.6
2023-03-26T12:21:12.742Z,14
2023-03-26T12:24:09.692Z,14.4
2023-03-26T12:27:09.567Z,14.2
2023-03-26T12:30:09.650Z,14
2023-03-26T12:33:09.739Z,13.4
2023-03-26T12:36:10.082Z,13
2023-03-26T12:45:10.856Z,11.3
2023-03-26T12:48:13.709Z,11.2
2023-03-26T12:51:09.842Z,11.2
2023-03-26T12:54:09.745Z,11.2
2023-03-26T12:57:22.342Z,11.2
2023-03-26T13:00:09.889Z,11
2023-03-26T13:03:10.223Z,10.8
2023-03-26T13:06:09.579Z,10.7
2023-03-26T13:09:09.541Z,10.5
2023-03-26T13:12:09.592Z,10.3
2023-03-26T13:15:09.702Z,9.9
2023-03-26T13:18:09.994Z,9.8
2023-03-26T13:21:09.813Z,9.6
2023-03-26T13:24:09.593Z,9.7
2023-03-26T13:27:09.586Z,9.7
2023-03-26T13:30:09.721Z,9.8
2023-03-26T13:33:09.839Z,9.8
2023-03-26T13:36:32.727Z,9.9
2023-03-26T13:39:09.811Z,9.8
2023-03-26T13:42:09.632Z,9.8
2023-03-26T13:45:14.886Z,9.9
2023-03-26T13:48:09.840Z,9.9
2023-03-26T13:51:09.618Z,9.9
2023-03-26T13:54:09.585Z,10
2023-03-26T13:57:09.997Z,10.1
2023-03-26T14:00:09.735Z,10.1
2023-03-26T14:03:09.949Z,10.2
2023-03-26T14:06:09.530Z,10.1
2023-03-26T14:09:09.509Z,10.1
2023-03-26T14:12:23.607Z,10
2023-03-26T14:15:09.532Z,9.8
2023-03-26T14:18:09.840Z,9.6
2023-03-26T14:21:09.565Z,9.4
2023-03-26T14:24:09.579Z,9.3
2023-03-26T14:27:09.548Z,9.3
2023-03-26T14:30:13.079Z,9.1
2023-03-26T14:33:09.765Z,9.1
2023-03-26T14:36:09.956Z,8.9
2023-03-26T14:39:09.549Z,8.9
2023-03-26T14:42:09.584Z,8.9
2023-03-26T14:45:09.578Z,8.8
2023-03-26T14:48:12.468Z,8.6
2023-03-26T14:51:10.099Z,8.5
2023-03-26T14:54:09.520Z,8.4
2023-03-26T14:57:09.988Z,8.3
2023-03-26T15:00:09.710Z,8.2
2023-03-26T15:03:09.917Z,7.9
2023-03-26T15:06:09.559Z,7.9
2023-03-26T15:09:09.691Z,7.9
2023-03-26T15:12:22.370Z,7.9
2023-03-26T15:15:09.686Z,7.8
2023-03-26T15:18:09.622Z,7.7
2023-03-26T15:21:09.604Z,7.6
2023-03-26T15:24:09.567Z,7.5
2023-03-26T15:27:09.541Z,7.4
2023-03-26T15:30:09.684Z,7.4
2023-03-26T15:33:09.919Z,7.3
2023-03-26T15:36:09.895Z,7.2
2023-03-26T15:39:09.745Z,7.2
2023-03-26T15:42:10.029Z,7.2
2023-03-26T15:45:09.539Z,7.1
2023-03-26T15:48:13.281Z,7.1
2023-03-26T15:51:09.522Z,7
2023-03-26T15:54:09.574Z,6.9
2023-03-26T15:57:09.881Z,6.9
2023-03-26T16:00:09.645Z,6.9
2023-03-26T16:03:09.699Z,6.9
2023-03-26T16:06:09.573Z,6.9
2023-03-26T16:09:09.547Z,6.9
2023-03-26T16:12:09.501Z,6.9
2023-03-26T16:15:09.604Z,6.9
2023-03-26T16:18:09.752Z,6.9
2023-03-26T16:21:09.568Z,6.9
2023-03-26T16:24:09.608Z,6.9
2023-03-26T16:27:09.579Z,6.8
2023-03-26T16:30:09.656Z,6.7
2023-03-26T16:33:09.883Z,6.7
2023-03-26T16:36:09.967Z,6.7
2023-03-26T16:39:09.562Z,6.7
2023-03-26T16:42:15.622Z,6.7
2023-03-26T16:45:10.467Z,6.7
2023-03-26T16:48:10.127Z,6.7
2023-03-26T16:51:09.536Z,6.7
2023-03-26T16:54:09.755Z,6.8
2023-03-26T16:57:09.773Z,6.8
2023-03-26T17:00:16.341Z,6.7
2023-03-26T17:03:10.215Z,6.8
2023-03-26T17:06:09.587Z,6.8
2023-03-26T17:09:12.815Z,6.7
2023-03-26T17:12:09.615Z,6.7
2023-03-26T17:15:09.811Z,6.7
2023-03-26T17:18:10.077Z,6.7
2023-03-26T17:21:09.503Z,6.7
2023-03-26T17:24:17.767Z,6.7
2023-03-26T17:27:10.139Z,6.7
2023-03-26T17:30:09.892Z,6.7
2023-03-26T17:33:09.813Z,6.7
2023-03-26T17:36:09.939Z,6.7
2023-03-26T17:39:09.836Z,6.7
2023-03-26T17:42:09.734Z,6.6
2023-03-26T17:45:09.600Z,6.6
2023-03-26T17:48:09.694Z,6.6
2023-03-26T17:51:09.461Z,6.6
2023-03-26T17:54:09.558Z,6.5
2023-03-26T17:57:09.994Z,6.5
2023-03-26T18:00:09.564Z,6.5
2023-03-26T18:03:10.203Z,6.5
2023-03-26T18:06:09.457Z,6.5
2023-03-26T18:09:15.325Z,6.4
2023-03-26T18:12:09.498Z,6.4
2023-03-26T18:15:09.537Z,6.4
2023-03-26T18:18:09.629Z,6.4
2023-03-26T18:21:12.405Z,6.4
2023-03-26T18:24:09.620Z,6.4
2023-03-26T18:27:12.153Z,6.4
2023-03-26T18:30:11.830Z,6.4
2023-03-26T18:33:10.071Z,6.4
2023-03-26T18:36:09.697Z,6.4
2023-03-26T18:39:09.505Z,6.3
2023-03-26T18:42:09.527Z,6.3
2023-03-26T18:45:13.989Z,6.2
2023-03-26T18:48:09.741Z,6.2
2023-03-26T18:51:13.848Z,6.2
2023-03-26T18:54:09.544Z,6.1
2023-03-26T18:57:22.342Z,6.1
2023-03-26T19:00:09.543Z,6.1
2023-03-26T19:03:10.347Z,6.1
2023-03-26T19:06:09.501Z,6.1
2023-03-26T19:09:31.919Z,6
2023-03-26T19:12:09.502Z,5.9
2023-03-26T19:15:09.533Z,5.9
2023-03-26T19:18:09.988Z,5.9
2023-03-26T19:21:09.651Z,5.9
2023-03-26T19:24:09.581Z,5.9
2023-03-26T19:27:09.971Z,5.9
2023-03-26T19:30:09.577Z,5.9
2023-03-26T19:33:23.077Z,5.9
2023-03-26T19:36:09.752Z,5.9
2023-03-26T19:39:09.598Z,5.9
2023-03-26T19:42:09.580Z,5.9
2023-03-26T19:45:09.494Z,6
2023-03-26T19:48:49.887Z,5.9
2023-03-26T19:51:09.496Z,5.9
2023-03-26T19:54:09.594Z,5.9
2023-03-26T19:57:09.922Z,5.9
2023-03-26T20:00:09.636Z,5.9
2023-03-26T20:03:10.300Z,6
2023-03-26T20:06:09.501Z,6.1
2023-03-26T20:09:09.506Z,6.1
2023-03-26T20:12:09.542Z,6.1
2023-03-26T20:15:21.422Z,6
2023-03-26T20:18:09.990Z,6.1
2023-03-26T20:21:09.551Z,6
2023-03-26T20:24:09.502Z,6
2023-03-26T20:27:09.613Z,5.9
2023-03-26T20:30:16.407Z,5.9
2023-03-26T20:33:22.642Z,5.8
2023-03-26T20:36:10.009Z,5.8
2023-03-26T20:39:09.572Z,5.7
2023-03-26T20:42:09.472Z,5.7
2023-03-26T20:45:09.732Z,5.6
2023-03-26T20:48:09.899Z,5.5
2023-03-26T20:51:10.286Z,5.4
2023-03-26T20:54:09.709Z,5.3
2023-03-26T20:57:09.718Z,5.2
2023-03-26T21:00:09.618Z,5.2
2023-03-26T21:03:09.762Z,5.1
2023-03-26T21:06:09.527Z,5.1
2023-03-26T21:09:09.546Z,4.9
2023-03-26T21:12:09.597Z,4.9
2023-03-26T21:15:29.567Z,4.8
2023-03-26T21:18:09.835Z,4.7
2023-03-26T21:21:28.936Z,4.7
2023-03-26T21:24:09.531Z,4.6
2023-03-26T21:27:09.546Z,4.6
2023-03-26T21:30:09.525Z,4.6
2023-03-26T21:33:10.130Z,4.6
2023-03-26T21:36:10.207Z,4.5
2023-03-26T21:39:09.557Z,4.4
2023-03-26T21:42:14.818Z,4.3
2023-03-26T21:45:09.519Z,4.3
2023-03-26T21:48:09.954Z,4.2
2023-03-26T21:51:09.464Z,4.2
2023-03-26T21:54:09.534Z,4.2
2023-03-26T21:57:09.799Z,4.2
2023-03-26T22:00:09.965Z,4.1
2023-03-26T22:03:10.058Z,4.1
2023-03-26T22:06:09.565Z,4.1
2023-03-26T22:09:09.493Z,4.1
2023-03-26T22:12:09.524Z,4.1
2023-03-26T22:15:09.471Z,4.1
2023-03-26T22:18:09.897Z,4.1
2023-03-26T22:21:09.596Z,4.1
2023-03-26T22:24:09.491Z,4
2023-03-26T22:27:09.522Z,4
2023-03-26T22:30:09.655Z,4
2023-03-26T22:33:09.862Z,4
2023-03-26T22:36:27.006Z,4
2023-03-26T22:39:09.530Z,4
2023-03-26T22:42:09.679Z,3.9
2023-03-26T22:45:09.654Z,3.9
2023-03-26T22:48:13.593Z,3.9
2023-03-26T22:51:09.544Z,3.9
2023-03-26T22:54:09.557Z,3.8
2023-03-26T22:57:09.829Z,3.7
2023-03-26T23:00:09.626Z,3.7
2023-03-26T23:03:10.213Z,3.6
2023-03-26T23:06:09.588Z,3.7
2023-03-26T23:09:09.492Z,3.7
2023-03-26T23:12:09.563Z,3.7
2023-03-26T23:15:09.551Z,3.7
2023-03-26T23:18:09.833Z,3.7
2023-03-26T23:21:16.130Z,3.7
2023-03-26T23:24:09.573Z,3.7
2023-03-26T23:27:09.550Z,3.7
2023-03-26T23:30:09.526Z,3.7
2023-03-26T23:33:09.625Z,3.7
2023-03-26T23:36:13.935Z,3.7
2023-03-26T23:39:09.574Z,3.7
2023-03-26T23:42:09.502Z,3.6
2023-03-26T23:45:09.509Z,3.6
2023-03-26T23:48:09.694Z,3.6
2023-03-26T23:51:13.198Z,3.6
2023-03-26T23:54:09.513Z,3.5
2023-03-26T23:57:10.008Z,3.4
